createdAt,value
2022-11-24T00:04:55.794Z,58.97
2022-11-24T00:09:57.569Z,58.79
2022-11-24T00:14:59.365Z,59.18
2022-11-24T00:20:01.133Z,59.22
2022-11-24T00:25:02.935Z,59.00
2022-11-24T00:30:05.077Z,59.46
2022-11-24T00:35:07.786Z,59.27
2022-11-24T00:40:09.879Z,59.13
2022-11-24T00:45:14.182Z,58.85
2022-11-24T00:50:16.426Z,59.45
2022-11-24T00:55:18.205Z,58.99
2022-11-24T01:00:20.125Z,59.47
2022-11-24T01:05:21.936Z,59.79
2022-11-24T01:10:23.730Z,59.22
2022-11-24T01:15:26.332Z,59.55
2022-11-24T01:20:28.141Z,59.45
2022-11-24T01:25:29.908Z,59.74
2022-11-24T01:30:31.726Z,59.49
2022-11-24T01:35:33.628Z,60.25
2022-11-24T01:40:35.483Z,59.65
2022-11-24T01:45:41.251Z,59.73
2022-11-24T01:50:43.800Z,59.88
2022-11-24T01:55:47.004Z,59.55
2022-11-24T02:00:49.869Z,59.83
2022-11-24T02:06:00.806Z,59.94
2022-11-24T02:11:05.115Z,59.99
2022-11-24T02:16:09.186Z,59.93
2022-11-24T02:21:16.145Z,59.83
2022-11-24T02:26:40.411Z,59.65
2022-11-24T02:31:47.107Z,59.39
2022-11-24T02:36:48.922Z,59.44
2022-11-24T02:41:56.921Z,59.55
2022-11-24T02:47:09.892Z,59.69
2022-11-24T02:52:11.700Z,59.43
2022-11-24T02:57:13.472Z,60.09
2022-11-24T03:02:15.398Z,60.22
2022-11-24T03:07:17.273Z,59.78
2022-11-24T03:12:19.101Z,59.37
2022-11-24T03:17:20.902Z,59.33
2022-11-24T03:22:22.704Z,59.28
2022-11-24T03:27:24.486Z,59.36
2022-11-24T03:32:26.301Z,59.13
2022-11-24T03:37:28.437Z,59.58
2022-11-24T03:42:30.216Z,59.63
2022-11-24T03:47:32.006Z,59.33
2022-11-24T03:52:33.822Z,59.93
2022-11-24T03:57:35.629Z,60.08
2022-11-24T04:02:38.196Z,59.80
2022-11-24T04:07:40.353Z,60.08
2022-11-24T04:12:45.000Z,60.24
2022-11-24T04:17:48.462Z,60.26
2022-11-24T04:22:51.857Z,60.19
2022-11-24T04:27:55.540Z,60.32
2022-11-24T04:32:57.492Z,60.22
2022-11-24T04:38:03.079Z,60.79
2022-11-24T04:43:04.966Z,60.18
2022-11-24T04:48:06.797Z,60.14
2022-11-24T04:53:09.519Z,60.39
2022-11-24T04:58:11.672Z,60.39
2022-11-24T05:03:13.478Z,60.17
2022-11-24T05:08:15.337Z,60.97
2022-11-24T05:13:17.138Z,60.62
2022-11-24T05:18:18.968Z,60.33
2022-11-24T05:23:20.771Z,61.04
2022-11-24T05:28:22.559Z,60.84
2022-11-24T05:33:24.484Z,61.13
2022-11-24T05:38:26.910Z,61.17
2022-11-24T05:43:29.006Z,61.32
2022-11-24T05:48:30.793Z,61.46
2022-11-24T05:53:32.606Z,61.62
2022-11-24T05:58:34.414Z,61.67
2022-11-24T06:03:36.268Z,61.79
2022-11-24T06:08:38.102Z,62.59
2022-11-24T06:13:41.953Z,62.52
2022-11-24T06:18:43.954Z,62.31
2022-11-24T06:23:48.671Z,62.42
2022-11-24T06:28:50.472Z,62.57
2022-11-24T06:33:52.374Z,62.96
2022-11-24T06:38:54.758Z,62.85
2022-11-24T06:43:56.632Z,62.46
2022-11-24T06:48:59.963Z,62.80
2022-11-24T06:54:01.916Z,62.63
2022-11-24T06:59:03.797Z,62.73
2022-11-24T07:04:05.570Z,62.94
2022-11-24T07:09:09.405Z,63.46
2022-11-24T07:14:11.263Z,63.36
2022-11-24T07:19:13.078Z,63.26
2022-11-24T07:24:14.937Z,63.07
2022-11-24T07:29:16.758Z,62.83
2022-11-24T07:34:18.563Z,63.33
2022-11-24T07:39:20.472Z,63.11
2022-11-24T07:44:22.321Z,62.99
2022-11-24T07:49:24.156Z,63.25
2022-11-24T07:54:25.987Z,62.76
2022-11-24T07:59:27.863Z,63.19
2022-11-24T08:04:29.732Z,63.69
2022-11-24T08:09:31.492Z,63.59
2022-11-24T08:14:33.566Z,63.54
2022-11-24T08:19:35.733Z,63.57
2022-11-24T08:24:38.083Z,63.51
2022-11-24T08:29:40.081Z,63.61
2022-11-24T08:34:41.980Z,63.58
2022-11-24T08:39:43.799Z,63.80
2022-11-24T08:44:45.592Z,63.74
2022-11-24T08:49:47.632Z,64.34
2022-11-24T08:54:50.468Z,64.36
2022-11-24T08:59:52.409Z,64.27
2022-11-24T09:04:54.217Z,64.57
2022-11-24T09:09:56.069Z,64.46
2022-11-24T09:14:57.882Z,63.82
2022-11-24T09:19:59.662Z,64.26
2022-11-24T09:25:01.523Z,64.10
2022-11-24T09:30:04.328Z,63.36
2022-11-24T09:35:07.423Z,64.23
2022-11-24T09:40:13.889Z,64.01
2022-11-24T09:45:35.387Z,64.24
2022-11-24T09:50:40.361Z,63.81
2022-11-24T09:55:47.299Z,63.85
2022-11-24T10:00:52.387Z,63.37
2022-11-24T10:05:54.560Z,63.83
2022-11-24T10:11:03.323Z,63.92
2022-11-24T10:16:22.362Z,64.34
2022-11-24T10:21:47.500Z,64.69
2022-11-24T10:26:57.884Z,64.37
2022-11-24T10:32:03.931Z,64.86
2022-11-24T10:37:11.690Z,64.22
2022-11-24T10:42:13.490Z,64.68
2022-11-24T10:47:20.077Z,64.94
2022-11-24T10:52:23.436Z,64.40
2022-11-24T10:57:37.060Z,64.86
2022-11-24T11:02:40.377Z,64.89
2022-11-24T11:07:42.291Z,64.57
2022-11-24T11:12:45.205Z,64.46
2022-11-24T11:17:47.285Z,64.08
2022-11-24T11:22:50.461Z,64.58
2022-11-24T11:28:18.435Z,64.60
2022-11-24T11:38:49.012Z,64.17
2022-11-24T11:44:01.307Z,64.45
2022-11-24T11:49:03.446Z,64.42
2022-11-24T11:54:14.407Z,64.59
2022-11-24T11:59:34.995Z,64.21
2022-11-24T12:04:52.703Z,64.42
2022-11-24T12:10:10.732Z,64.81
2022-11-24T12:15:23.329Z,64.19
2022-11-24T12:20:55.994Z,64.66
2022-11-24T12:26:08.100Z,64.35
2022-11-24T12:31:31.701Z,64.75
2022-11-24T12:36:51.858Z,64.29
2022-11-24T12:42:02.500Z,64.61
2022-11-24T12:47:10.407Z,64.25
2022-11-24T12:52:25.508Z,64.50
2022-11-24T12:57:33.172Z,64.51
2022-11-24T13:03:25.949Z,64.49
2022-11-24T13:08:30.003Z,64.13
2022-11-24T13:13:57.997Z,64.47
2022-11-24T13:19:10.180Z,63.67
2022-11-24T13:24:20.379Z,63.62
2022-11-24T13:29:28.575Z,63.68
2022-11-24T13:34:40.193Z,63.58
2022-11-24T13:39:53.602Z,63.27
2022-11-24T13:45:07.157Z,63.68
2022-11-24T13:50:18.920Z,63.61
2022-11-24T13:55:34.047Z,63.24
2022-11-24T14:01:06.044Z,63.61
2022-11-24T14:06:34.563Z,63.07
2022-11-24T14:11:36.677Z,63.30
2022-11-24T14:16:38.657Z,63.34
2022-11-24T14:21:45.176Z,62.64
2022-11-24T14:26:47.753Z,63.31
2022-11-24T14:31:58.840Z,63.49
2022-11-24T14:37:01.532Z,62.73
2022-11-24T14:42:17.632Z,62.76
2022-11-24T14:47:30.859Z,62.97
2022-11-24T14:52:34.592Z,62.74
2022-11-24T14:57:38.077Z,63.04
2022-11-24T15:02:44.789Z,63.38
2022-11-24T15:07:48.439Z,62.84
2022-11-24T15:12:57.354Z,62.84
2022-11-24T15:18:00.970Z,62.88
2022-11-24T15:23:28.593Z,63.22
2022-11-24T15:28:31.461Z,62.73
2022-11-24T15:33:33.257Z,62.69
2022-11-24T15:38:35.376Z,62.96
2022-11-24T15:43:42.148Z,62.51
2022-11-24T15:48:43.980Z,63.02
2022-11-24T15:53:55.680Z,62.59
2022-11-24T15:59:01.831Z,62.75
2022-11-24T16:04:03.815Z,63.00
2022-11-24T16:09:05.640Z,63.01
2022-11-24T16:14:07.509Z,63.37
2022-11-24T16:19:11.199Z,62.74
2022-11-24T16:24:13.234Z,62.92
2022-11-24T16:29:15.174Z,62.60
2022-11-24T16:34:17.210Z,62.36
2022-11-24T16:39:19.020Z,62.37
2022-11-24T16:44:20.830Z,62.50
2022-11-24T16:49:22.757Z,62.68
2022-11-24T16:54:25.732Z,62.34
2022-11-24T16:59:27.573Z,62.82
2022-11-24T17:04:29.358Z,62.52
2022-11-24T17:09:33.870Z,62.70
2022-11-24T17:14:39.944Z,63.21
2022-11-24T17:19:42.485Z,62.39
2022-11-24T17:24:44.426Z,62.66
2022-11-24T17:29:46.340Z,62.73
2022-11-24T17:34:48.187Z,62.80
2022-11-24T17:40:05.904Z,62.36
2022-11-24T17:45:11.864Z,62.85
2022-11-24T17:50:14.085Z,62.64
2022-11-24T17:55:15.943Z,63.33
2022-11-24T18:00:18.358Z,63.55
2022-11-24T18:05:21.357Z,63.59
2022-11-24T18:10:23.267Z,63.44
2022-11-24T18:15:25.577Z,63.73
2022-11-24T18:20:29.093Z,63.62
2022-11-24T18:25:31.082Z,63.44
2022-11-24T18:30:32.978Z,64.02
2022-11-24T18:35:34.819Z,63.76
2022-11-24T18:40:40.612Z,63.50
2022-11-24T18:45:42.481Z,63.26
2022-11-24T18:50:44.275Z,63.46
2022-11-24T18:55:55.232Z,63.50
2022-11-24T19:01:18.244Z,63.80
2022-11-24T19:06:23.178Z,63.94
2022-11-24T19:11:32.474Z,63.93
2022-11-24T19:16:35.130Z,63.78
2022-11-24T19:21:38.690Z,64.03
2022-11-24T19:26:40.898Z,63.21
2022-11-24T19:31:44.024Z,63.36
2022-11-24T19:36:45.892Z,64.03
2022-11-24T19:41:47.707Z,63.82
2022-11-24T19:46:50.106Z,64.03
2022-11-24T19:51:53.438Z,64.18
2022-11-24T19:56:56.411Z,63.58
2022-11-24T20:01:58.523Z,63.68
2022-11-24T20:07:00.564Z,63.74
2022-11-24T20:12:02.654Z,63.31
2022-11-24T20:17:06.745Z,63.27
2022-11-24T20:22:08.608Z,63.48
2022-11-24T20:27:10.477Z,63.35
2022-11-24T20:32:17.535Z,64.44
2022-11-24T20:37:19.462Z,64.63
2022-11-24T20:42:21.287Z,64.88
2022-11-24T20:47:23.108Z,64.15
2022-11-24T20:52:24.988Z,64.57
2022-11-24T20:57:26.785Z,64.58
2022-11-24T21:02:28.684Z,64.09
2022-11-24T21:07:30.598Z,63.76
2022-11-24T21:12:32.433Z,63.75
2022-11-24T21:17:34.456Z,63.25
2022-11-24T21:22:36.343Z,63.18
2022-11-24T21:27:38.168Z,63.41
2022-11-24T21:32:40.070Z,63.51
2022-11-24T21:37:42.087Z,63.51
2022-11-24T21:42:43.907Z,63.29
2022-11-24T21:47:47.313Z,63.57
2022-11-24T21:52:49.489Z,63.36
2022-11-24T21:57:51.469Z,63.59
2022-11-24T22:02:54.852Z,63.75
2022-11-24T22:07:56.770Z,63.33
2022-11-24T22:12:58.664Z,63.50
2022-11-24T22:18:00.457Z,63.96
2022-11-24T22:23:02.784Z,63.51
2022-11-24T22:28:04.605Z,63.40
2022-11-24T22:33:06.418Z,63.20
2022-11-24T22:38:08.292Z,63.34
2022-11-24T22:43:10.090Z,63.52
2022-11-24T22:48:12.176Z,63.17
2022-11-24T22:53:13.968Z,63.36
2022-11-24T22:58:15.752Z,63.04
2022-11-24T23:03:17.619Z,63.10
2022-11-24T23:08:19.467Z,62.87
2022-11-24T23:13:21.259Z,62.49
2022-11-24T23:18:23.044Z,62.77
2022-11-24T23:23:24.834Z,62.68
2022-11-24T23:28:26.607Z,62.06
2022-11-24T23:33:28.676Z,62.59
2022-11-24T23:38:32.653Z,62.66
2022-11-24T23:43:35.770Z,62.23
2022-11-24T23:48:38.353Z,62.48
2022-11-24T23:53:41.739Z,61.78
2022-11-24T23:58:43.771Z,62.52
